Time;durP1;ratioP1;P1;durP2;ratioP2;P2;SDS_P1;SDS_P2;PMS_P1;PMS_P2;Temp;Humidity;BMP_temperature;BMP_pressure;BME280_temperature;BME280_humidity;BME280_pressure;Samples;Min_cycle;Max_cycle;Signal;HPM_P1;HPM_P2
2021/11/04 00:01:31;;;;;;;27.77;21.00;;;;;;;9.19;90.06;96232.72;6269586;28;20199;-71
2021/11/04 00:04:34;;;;;;;24.37;18.33;;;;;;;9.18;90.10;96228.44;6268901;28;20687;-72
2021/11/04 00:07:37;;;;;;;26.50;19.57;;;;;;;9.19;90.54;96219.56;6267712;28;20248;-72
2021/11/04 00:10:39;;;;;;;32.30;23.03;;;;;;;9.19;90.12;96227.44;6269095;28;20231;-71
2021/11/04 00:13:41;;;;;;;29.80;22.50;;;;;;;9.17;90.30;96227.63;6269297;28;20226;-71
2021/11/04 00:16:44;;;;;;;29.37;23.33;;;;;;;9.17;90.30;96205.75;6267694;28;20244;-71
2021/11/04 00:19:46;;;;;;;29.50;22.03;;;;;;;9.16;90.18;96180.41;6268334;28;20693;-71
2021/11/04 00:22:48;;;;;;;27.87;21.23;;;;;;;9.13;90.26;96185.94;6269005;28;20199;-71
2021/11/04 00:25:50;;;;;;;25.53;20.13;;;;;;;9.14;90.54;96174.44;6268059;28;20210;-71
2021/11/04 00:28:53;;;;;;;26.60;20.20;;;;;;;9.13;89.84;96181.50;6267524;28;20525;-71
2021/11/04 00:31:56;;;;;;;24.67;19.60;;;;;;;9.14;90.35;96191.06;6268830;28;20670;-70
2021/11/04 00:34:58;;;;;;;24.20;19.33;;;;;;;9.14;90.24;96201.59;6268534;28;20214;-71
2021/11/04 00:38:00;;;;;;;30.37;21.37;;;;;;;9.13;90.04;96215.72;6268172;28;20222;-70
2021/11/04 00:41:03;;;;;;;29.13;21.70;;;;;;;9.13;90.58;96207.84;6267320;28;20229;-71
2021/11/04 00:44:05;;;;;;;30.90;22.43;;;;;;;9.13;90.92;96199.09;6268486;28;20263;-71
2021/11/04 00:47:07;;;;;;;32.03;23.87;;;;;;;9.11;90.49;96191.38;6269331;28;20273;-70
2021/11/04 00:50:10;;;;;;;27.03;21.67;;;;;;;9.06;90.32;96187.53;6266999;28;20190;-71
2021/11/04 00:53:12;;;;;;;31.13;23.50;;;;;;;9.04;90.33;96200.84;6267204;28;20218;-70
2021/11/04 00:56:14;;;;;;;33.00;27.80;;;;;;;8.99;90.42;96197.81;6268415;28;20223;-71
2021/11/04 00:59:16;;;;;;;35.50;27.47;;;;;;;8.96;90.69;96192.88;6268134;28;20201;-70
2021/11/04 01:02:18;;;;;;;35.37;27.97;;;;;;;8.88;90.25;96179.66;6267000;28;20198;-71
2021/11/04 01:05:21;;;;;;;36.43;28.20;;;;;;;8.80;90.14;96174.28;6267818;28;20281;-71
2021/11/04 01:08:23;;;;;;;32.63;25.80;;;;;;;8.78;90.18;96169.16;6268484;28;20194;-71
2021/11/04 01:11:25;;;;;;;34.13;27.53;;;;;;;8.75;90.29;96173.91;6270598;28;20238;-71
2021/11/04 01:14:29;;;;;;;35.57;27.77;;;;;;;8.70;90.53;96192.75;6271538;28;20218;-70
2021/11/04 01:17:33;;;;;;;34.80;27.53;;;;;;;8.64;90.40;96167.06;6271948;28;20195;-71
2021/11/04 01:20:35;;;;;;;32.30;25.47;;;;;;;8.60;90.52;96154.34;6271906;28;20191;-71
2021/11/04 01:23:38;;;;;;;30.97;24.30;;;;;;;8.58;90.47;96162.41;6248454;28;20229;-72
2021/11/04 01:26:40;;;;;;;26.40;22.30;;;;;;;8.59;90.31;96150.06;6260585;28;20210;-71
2021/11/04 01:29:42;;;;;;;26.83;21.53;;;;;;;8.58;90.30;96136.13;6266190;28;20187;-71
2021/11/04 01:32:44;;;;;;;28.37;21.40;;;;;;;8.56;90.43;96131.97;6271472;28;20226;-71
2021/11/04 01:35:46;;;;;;;25.07;19.67;;;;;;;8.55;90.53;96125.06;6272495;28;20253;-71
2021/11/04 01:38:48;;;;;;;22.17;18.47;;;;;;;8.56;90.70;96111.75;6272842;28;20218;-71
2021/11/04 01:41:53;;;;;;;24.00;19.13;;;;;;;8.57;89.97;96104.72;6272669;28;20194;-71
2021/11/04 01:44:55;;;;;;;24.13;19.00;;;;;;;8.56;91.17;96106.50;6272370;28;20195;-71
2021/11/04 01:47:59;;;;;;;25.57;20.73;;;;;;;8.54;90.87;96102.38;6273008;28;20191;-71
2021/11/04 01:51:01;;;;;;;22.60;19.33;;;;;;;8.56;90.22;96098.63;6272070;28;20227;-71
2021/11/04 01:54:03;;;;;;;21.33;18.63;;;;;;;8.56;90.70;96096.00;6272505;28;20764;-71
2021/11/04 01:57:05;;;;;;;26.60;20.90;;;;;;;8.57;90.36;96095.00;6245988;28;20302;-71
2021/11/04 02:00:08;;;;;;;26.73;21.67;;;;;;;8.58;90.20;96109.81;6259200;28;20701;-71
2021/11/04 02:03:44;;;;;;;34.53;24.80;;;;;;;8.61;90.34;96116.56;6271031;28;20203;-72
2021/11/04 02:06:51;;;;;;;24.03;20.53;;;;;;;8.62;91.25;96116.41;6272196;28;20222;-71
2021/11/04 02:10:19;;;;;;;22.90;18.43;;;;;;;8.63;90.95;96125.13;6271826;28;20197;-71
2021/11/04 02:13:34;;;;;;;42.30;30.30;;;;;;;8.65;91.03;96120.56;6271351;28;20242;-71
2021/11/04 02:16:39;;;;;;;42.93;32.07;;;;;;;8.70;90.79;96115.66;6271735;28;20300;-71
2021/11/04 02:19:48;;;;;;;44.83;31.93;;;;;;;8.72;90.81;96104.03;6270459;28;20269;-71
2021/11/04 02:23:10;;;;;;;54.03;38.70;;;;;;;8.77;90.61;96075.47;6270099;28;20718;-71
2021/11/04 02:26:12;;;;;;;41.60;31.57;;;;;;;8.79;90.86;96072.66;6269956;28;20282;-71
2021/11/04 02:29:18;;;;;;;40.50;31.03;;;;;;;8.82;90.05;96072.38;6271587;28;20192;-71
2021/11/04 02:32:20;;;;;;;48.13;35.97;;;;;;;8.82;90.96;96081.09;6270225;28;20210;-71
2021/11/04 02:35:23;;;;;;;52.70;36.57;;;;;;;8.83;91.32;96074.88;6270855;28;20220;-71
2021/11/04 02:38:31;;;;;;;42.77;32.67;;;;;;;8.83;90.35;96063.50;6271251;28;20700;-70
2021/11/04 02:41:33;;;;;;;47.63;33.93;;;;;;;8.83;90.76;96061.72;6270992;28;20188;-71
2021/11/04 02:44:36;;;;;;;38.13;28.77;;;;;;;8.83;90.71;96050.34;6269875;28;20587;-71
2021/11/04 02:47:40;;;;;;;40.10;29.87;;;;;;;8.84;91.24;96044.13;6270958;28;20187;-71
2021/11/04 02:50:47;;;;;;;47.00;33.03;;;;;;;8.84;90.67;96046.75;6269628;28;20276;-71
2021/11/04 02:53:49;;;;;;;49.47;32.43;;;;;;;8.84;90.75;96025.72;6269704;28;20305;-71
2021/11/04 02:56:55;;;;;;;41.83;31.63;;;;;;;8.84;91.59;96021.28;6270335;28;20676;-70
2021/11/04 02:59:58;;;;;;;39.10;30.67;;;;;;;8.82;90.65;96022.41;6261430;28;20203;-71
2021/11/04 03:03:00;;;;;;;40.70;32.23;;;;;;;8.81;90.48;96021.56;6264737;28;20199;-71
2021/11/04 03:06:02;;;;;;;36.70;28.40;;;;;;;8.81;90.94;96011.06;6269561;28;20564;-71
2021/11/04 03:09:05;;;;;;;44.63;34.13;;;;;;;8.77;90.98;95993.13;6269533;28;20281;-71
2021/11/04 03:12:08;;;;;;;38.27;29.47;;;;;;;8.74;90.87;95965.31;6268612;28;20234;-71
2021/11/04 03:15:16;;;;;;;35.57;28.07;;;;;;;8.72;91.04;95940.97;6270736;28;20215;-71
2021/11/04 03:18:19;;;;;;;46.30;33.20;;;;;;;8.71;90.96;95941.94;6270194;28;20632;-71
2021/11/04 03:21:22;;;;;;;36.77;29.70;;;;;;;8.71;90.51;95947.19;6270473;28;20216;-71
2021/11/04 03:24:26;;;;;;;40.17;30.33;;;;;;;8.72;90.58;95950.66;6270242;28;20268;-71
2021/11/04 03:27:31;;;;;;;38.50;29.53;;;;;;;8.72;90.68;95938.34;6269583;28;20198;-71
2021/11/04 03:30:37;;;;;;;37.57;29.20;;;;;;;8.68;90.31;95900.19;6268593;28;20203;-71
2021/11/04 03:33:41;;;;;;;39.27;29.37;;;;;;;8.66;90.99;95878.47;6269279;28;20608;-71
2021/11/04 03:36:49;;;;;;;34.83;26.90;;;;;;;8.66;91.24;95888.19;6268574;28;20706;-71
2021/11/04 03:39:51;;;;;;;40.97;30.20;;;;;;;8.63;91.24;95885.84;6269697;28;20569;-72
2021/11/04 03:42:54;;;;;;;32.17;24.57;;;;;;;8.63;90.94;95891.09;6268329;28;20207;-72
2021/11/04 03:45:58;;;;;;;36.83;28.77;;;;;;;8.63;91.24;95884.03;6269878;28;20191;-71
2021/11/04 03:49:00;;;;;;;43.33;32.60;;;;;;;8.61;91.17;95883.38;6269994;28;20195;-72
2021/11/04 03:52:03;;;;;;;46.27;33.83;;;;;;;8.58;91.38;95894.22;6269680;28;20187;-71
2021/11/04 03:55:11;;;;;;;46.63;33.00;;;;;;;8.62;90.87;95900.78;6267531;28;20300;-71
2021/11/04 03:58:13;;;;;;;38.67;28.27;;;;;;;8.65;91.20;95903.13;6268062;28;20223;-72
2021/11/04 04:01:15;;;;;;;45.80;32.30;;;;;;;8.68;90.68;95921.22;6269294;28;20603;-72
2021/11/04 04:04:18;;;;;;;37.63;29.03;;;;;;;8.71;91.43;95902.50;6268906;28;20577;-71
2021/11/04 04:07:20;;;;;;;37.90;28.43;;;;;;;8.73;91.42;95890.03;6270008;28;20213;-71
2021/11/04 04:10:23;;;;;;;31.43;25.20;;;;;;;8.75;91.00;95890.69;6268453;28;20256;-72
2021/11/04 04:13:25;;;;;;;39.70;30.40;;;;;;;8.77;92.08;95898.44;6267659;28;20359;-71
2021/11/04 04:16:27;;;;;;;41.87;30.17;;;;;;;8.82;91.19;95890.88;6269145;28;20561;-71
2021/11/04 04:19:29;;;;;;;38.10;28.87;;;;;;;8.84;91.46;95870.50;6268961;28;20202;-72
2021/11/04 04:22:31;;;;;;;45.80;31.83;;;;;;;8.82;91.78;95860.16;6267845;28;20203;-72
2021/11/04 04:25:33;;;;;;;37.83;29.67;;;;;;;8.90;91.10;95851.47;6267442;28;20287;-72
2021/11/04 04:28:36;;;;;;;42.77;31.73;;;;;;;8.96;91.43;95848.22;6267677;28;20229;-72
2021/11/04 04:31:38;;;;;;;38.37;29.00;;;;;;;9.00;91.77;95851.34;6268657;28;20202;-71
2021/11/04 04:34:42;;;;;;;35.17;27.23;;;;;;;9.01;91.31;95835.41;6268351;28;20290;-71
2021/11/04 04:37:44;;;;;;;31.70;26.00;;;;;;;9.05;90.97;95836.75;6268724;28;20216;-72
2021/11/04 04:40:46;;;;;;;34.33;27.13;;;;;;;9.12;91.52;95839.56;6267107;28;20233;-73
2021/11/04 04:43:49;;;;;;;33.47;26.33;;;;;;;9.13;91.35;95814.88;6268352;28;20187;-71
2021/11/04 04:46:51;;;;;;;32.23;25.47;;;;;;;9.13;91.31;95802.56;6267762;28;20213;-72
2021/11/04 04:49:58;;;;;;;38.37;28.00;;;;;;;9.19;92.05;95798.44;6268543;28;20616;-71
2021/11/04 04:53:00;;;;;;;31.10;23.57;;;;;;;9.23;91.74;95799.78;6268503;28;20206;-72
2021/11/04 04:56:02;;;;;;;30.67;24.20;;;;;;;9.26;91.36;95788.94;6266892;28;20207;-72
2021/11/04 04:59:05;;;;;;;34.40;23.83;;;;;;;9.32;91.45;95804.06;6268537;28;20193;-72
2021/11/04 05:02:07;;;;;;;28.60;24.47;;;;;;;9.38;91.91;95800.00;6268109;28;20199;-72
2021/11/04 05:05:10;;;;;;;26.97;21.33;;;;;;;9.40;91.63;95803.25;6268461;28;20202;-71
2021/11/04 05:08:12;;;;;;;33.00;23.07;;;;;;;9.44;91.64;95809.88;6268700;28;20219;-72
2021/11/04 05:11:15;;;;;;;30.60;23.20;;;;;;;9.46;91.23;95810.53;6283338;28;20242;-71
2021/11/04 05:14:17;;;;;;;34.10;24.27;;;;;;;9.47;91.62;95807.75;6268753;28;20222;-72
2021/11/04 05:17:19;;;;;;;28.10;22.67;;;;;;;9.49;91.09;95789.13;6267689;28;20590;-72
2021/11/04 05:20:21;;;;;;;30.57;23.50;;;;;;;9.52;91.18;95783.53;6267274;28;20207;-72
2021/11/04 05:23:24;;;;;;;25.93;21.37;;;;;;;9.57;90.95;95778.63;6268300;28;20606;-72
2021/11/04 05:26:26;;;;;;;23.53;20.03;;;;;;;9.59;91.32;95768.72;6267747;28;20228;-71
2021/11/04 05:29:28;;;;;;;25.53;20.53;;;;;;;9.58;91.59;95767.91;6268109;28;20245;-72
2021/11/04 05:32:30;;;;;;;25.53;19.27;;;;;;;9.59;90.94;95780.09;6267721;28;20192;-71
2021/11/04 05:35:32;;;;;;;24.43;19.67;;;;;;;9.58;91.58;95760.00;6267935;28;20203;-71
2021/11/04 05:38:34;;;;;;;21.77;19.33;;;;;;;9.63;91.39;95754.25;6266170;28;20223;-71
2021/11/04 05:41:36;;;;;;;24.50;19.43;;;;;;;9.65;91.52;95754.91;6267910;28;20199;-71
2021/11/04 05:44:38;;;;;;;22.93;20.00;;;;;;;9.65;91.12;95757.56;6266242;28;20257;-70
2021/11/04 05:47:41;;;;;;;27.13;21.37;;;;;;;9.67;90.98;95758.22;6267624;28;20261;-72
2021/11/04 05:50:43;;;;;;;26.73;18.30;;;;;;;9.69;91.62;95766.75;6266347;28;20246;-71
2021/11/04 05:53:45;;;;;;;24.50;19.13;;;;;;;9.72;91.13;95766.44;6267172;28;20211;-70
2021/11/04 05:56:52;;;;;;;24.33;18.80;;;;;;;9.76;91.05;95788.00;6268915;28;20570;-70
2021/11/04 05:59:55;;;;;;;21.40;18.90;;;;;;;9.80;91.49;95794.59;6271241;28;20276;-70
2021/11/04 06:02:57;;;;;;;20.27;16.17;;;;;;;9.82;91.50;95803.16;6271820;28;20310;-70
2021/11/04 06:05:59;;;;;;;18.47;15.57;;;;;;;9.82;91.58;95795.25;6272026;28;20191;-72
2021/11/04 06:09:01;;;;;;;17.63;15.30;;;;;;;9.86;91.05;95801.84;6271493;28;20272;-71
2021/11/04 06:12:03;;;;;;;16.83;15.13;;;;;;;9.88;90.68;95810.41;6270181;28;20262;-70
2021/11/04 06:15:06;;;;;;;20.20;17.40;;;;;;;9.88;91.06;95810.41;6271336;28;20218;-70
2021/11/04 06:18:08;;;;;;;17.70;15.93;;;;;;;9.92;91.08;95824.88;6271069;28;20195;-71
2021/11/04 06:21:13;;;;;;;17.73;15.47;;;;;;;9.94;91.38;95841.38;6271237;28;20204;-71
2021/11/04 06:24:15;;;;;;;18.70;14.33;;;;;;;9.96;90.84;95834.94;6269648;28;20198;-71
2021/11/04 06:27:18;;;;;;;19.33;14.93;;;;;;;10.02;90.80;95828.19;6270039;28;20193;-72
2021/11/04 06:30:20;;;;;;;15.83;14.23;;;;;;;10.09;90.87;95844.97;6269429;28;20203;-71
2021/11/04 06:33:22;;;;;;;16.57;14.40;;;;;;;10.12;90.87;95841.19;6270748;28;20330;-71
2021/11/04 06:36:24;;;;;;;17.07;14.63;;;;;;;10.14;90.43;95850.59;6270927;28;20207;-72
2021/11/04 06:39:26;;;;;;;14.13;12.63;;;;;;;10.20;90.59;95851.75;6269340;28;20656;-72
2021/11/04 06:42:29;;;;;;;21.43;14.03;;;;;;;10.26;90.99;95859.84;6271364;28;20192;-71
2021/11/04 06:45:33;;;;;;;15.40;12.73;;;;;;;10.40;90.60;95871.50;6270260;28;20184;-71
2021/11/04 06:48:46;;;;;;;13.93;12.50;;;;;;;10.52;90.66;95864.09;6270564;28;20559;-71
2021/11/04 06:51:51;;;;;;;15.67;12.70;;;;;;;10.59;90.84;95881.72;6270930;28;20591;-72
2021/11/04 06:54:56;;;;;;;13.17;11.87;;;;;;;10.71;90.73;95898.03;6269986;28;20298;-71
2021/11/04 06:58:01;;;;;;;11.53;10.40;;;;;;;10.79;90.38;95907.72;6270863;28;20192;-72
2021/11/04 07:01:12;;;;;;;12.87;10.43;;;;;;;10.85;90.32;95904.44;6269987;28;20203;-71
2021/11/04 07:04:22;;;;;;;10.60;9.50;;;;;;;10.87;89.91;95924.41;6270318;28;20195;-72
2021/11/04 07:07:25;;;;;;;11.47;9.53;;;;;;;10.87;90.45;95937.59;6268864;28;20231;-71
2021/11/04 07:10:29;;;;;;;10.40;9.30;;;;;;;10.84;90.38;95948.47;6270291;28;20281;-72
2021/11/04 07:13:32;;;;;;;10.03;8.93;;;;;;;10.80;90.09;95948.97;6270365;28;20188;-71
2021/11/04 07:16:35;;;;;;;18.17;14.43;;;;;;;10.46;89.65;95963.19;6269657;28;20199;-71
2021/11/04 07:19:37;;;;;;;16.47;14.33;;;;;;;10.08;88.37;95977.75;6269189;28;20203;-72
2021/11/04 07:22:51;;;;;;;17.57;13.43;;;;;;;9.86;88.07;95981.00;6270580;28;20277;-71
2021/11/04 07:25:59;;;;;;;14.27;12.63;;;;;;;9.49;86.79;96003.22;6270073;28;20266;-70
2021/11/04 07:29:05;;;;;;;12.20;10.83;;;;;;;9.10;84.85;96018.66;6270028;28;20222;-70
2021/11/04 07:32:09;;;;;;;11.47;10.27;;;;;;;9.03;86.10;96022.88;6267922;28;20210;-71
2021/11/04 07:35:12;;;;;;;8.47;7.60;;;;;;;8.68;82.97;96042.19;6269711;28;20257;-71
2021/11/04 07:38:14;;;;;;;8.07;7.13;;;;;;;8.57;83.83;96058.22;6267833;28;20226;-70
2021/11/04 07:41:17;;;;;;;7.03;6.10;;;;;;;8.43;84.35;96071.84;6269906;28;20210;-70
2021/11/04 07:44:19;;;;;;;5.93;5.20;;;;;;;8.32;84.39;96079.97;6269292;28;20564;-71
2021/11/04 07:47:22;;;;;;;3.97;3.57;;;;;;;8.13;84.57;96096.63;6269397;28;20566;-71
2021/11/04 07:50:27;;;;;;;3.13;2.83;;;;;;;7.99;83.98;96105.00;6269841;28;20563;-71
2021/11/04 07:53:29;;;;;;;2.57;2.20;;;;;;;7.76;82.19;96120.31;6269025;28;20230;-71
2021/11/04 07:56:34;;;;;;;3.27;1.63;;;;;;;7.61;82.20;96127.81;6268167;28;20214;-71
2021/11/04 07:59:42;;;;;;;1.20;1.00;;;;;;;7.41;82.15;96152.47;6268957;28;20193;-71
2021/11/04 08:02:44;;;;;;;0.47;0.47;;;;;;;7.25;80.90;96168.81;6268733;28;20580;-70
2021/11/04 08:05:49;;;;;;;2.23;0.60;;;;;;;7.13;80.88;96159.41;6267788;28;20248;-70
2021/11/04 08:08:51;;;;;;;0.57;0.40;;;;;;;7.05;80.72;96169.78;6267230;28;20578;-70
2021/11/04 08:11:53;;;;;;;0.20;0.20;;;;;;;6.85;79.54;96195.16;6269068;28;20641;-71
2021/11/04 08:14:55;;;;;;;0.20;0.20;;;;;;;6.81;80.93;96170.19;6268405;28;20213;-71
2021/11/04 08:17:59;;;;;;;0.17;0.17;;;;;;;6.66;80.53;96172.38;6269031;28;20199;-71
2021/11/04 08:21:02;;;;;;;0.10;0.10;;;;;;;6.57;81.10;96172.38;6268908;28;20199;-71
2021/11/04 08:24:04;;;;;;;0.00;0.00;;;;;;;6.52;81.29;96182.41;6268851;28;20198;-71
2021/11/04 08:27:06;;;;;;;0.10;0.10;;;;;;;6.53;81.45;96184.91;6268889;28;20666;-71
2021/11/04 08:30:14;;;;;;;0.73;0.20;;;;;;;6.51;81.46;96176.34;6267938;28;20613;-71
2021/11/04 08:33:17;;;;;;;0.10;0.10;;;;;;;6.50;81.18;96185.16;6268159;28;20203;-71
2021/11/04 08:36:20;;;;;;;0.10;0.10;;;;;;;6.42;80.78;96197.28;6268549;28;20732;-72
2021/11/04 08:39:24;;;;;;;0.10;0.10;;;;;;;6.46;80.91;96217.88;6270439;28;20192;-71
2021/11/04 08:42:27;;;;;;;0.50;0.20;;;;;;;6.46;80.72;96207.38;6269571;28;20276;-71
2021/11/04 08:45:29;;;;;;;0.10;0.10;;;;;;;6.44;79.78;96232.88;6268961;28;20219;-71
2021/11/04 08:48:31;;;;;;;0.10;0.10;;;;;;;6.42;79.80;96223.50;6268927;28;20186;-71
2021/11/04 08:51:33;;;;;;;1.33;0.10;;;;;;;6.41;79.79;96261.13;6268742;28;20277;-71
2021/11/04 08:54:36;;;;;;;0.50;0.10;;;;;;;6.43;80.11;96253.97;6267495;28;20219;-71
2021/11/04 08:57:40;;;;;;;0.10;0.10;;;;;;;6.44;79.09;96274.81;6267919;28;20604;-71
2021/11/04 09:00:43;;;;;;;1.93;0.20;;;;;;;6.52;79.07;96292.50;6268372;28;20184;-70
2021/11/04 09:03:45;;;;;;;0.00;0.00;;;;;;;6.44;77.95;96287.91;6267644;28;20195;-71
2021/11/04 09:06:51;;;;;;;0.03;0.03;;;;;;;6.40;78.14;96286.50;6268270;28;20337;-71
2021/11/04 09:09:53;;;;;;;0.10;0.10;;;;;;;6.46;77.29;96259.78;6268484;28;20278;-70
2021/11/04 09:12:55;;;;;;;0.00;0.00;;;;;;;6.62;77.80;96275.84;6268693;28;20561;-71
2021/11/04 09:15:57;;;;;;;1.10;0.10;;;;;;;6.74;77.88;96294.09;6268497;28;20203;-71
2021/11/04 09:19:00;;;;;;;0.03;0.03;;;;;;;6.72;76.82;96294.22;6267889;28;20646;-71
2021/11/04 09:22:02;;;;;;;0.10;0.10;;;;;;;6.74;76.39;96307.19;6267134;28;20195;-71
2021/11/04 09:25:06;;;;;;;0.10;0.10;;;;;;;6.77;76.22;96320.03;6266982;28;20198;-72
2021/11/04 09:28:08;;;;;;;1.23;0.10;;;;;;;6.83;76.55;96340.47;6268260;28;20604;-71
2021/11/04 09:31:10;;;;;;;0.00;0.00;;;;;;;6.87;77.49;96347.13;6268356;28;20569;-71
2021/11/04 09:34:12;;;;;;;0.03;0.03;;;;;;;6.83;76.08;96343.09;6273326;28;20601;-71
2021/11/04 09:37:17;;;;;;;0.07;0.00;;;;;;;6.91;75.39;96341.47;6271283;28;20619;-71
2021/11/04 09:40:19;;;;;;;0.10;0.10;;;;;;;7.12;76.69;96336.13;6271558;28;20554;-71
2021/11/04 09:43:22;;;;;;;0.10;0.10;;;;;;;7.19;76.27;96350.38;6271973;28;20201;-71
2021/11/04 09:46:24;;;;;;;0.10;0.10;;;;;;;7.24;76.05;96363.09;6272228;28;20547;-71
2021/11/04 09:49:28;;;;;;;0.20;0.20;;;;;;;7.33;76.27;96357.03;6272249;28;20199;-70
2021/11/04 09:52:33;;;;;;;0.40;0.10;;;;;;;7.45;75.96;96350.72;6271692;28;20672;-70
2021/11/04 09:55:35;;;;;;;0.10;0.10;;;;;;;7.57;75.30;96367.16;6271853;28;20226;-71
2021/11/04 09:58:38;;;;;;;0.10;0.10;;;;;;;7.75;74.66;96368.13;6271563;28;20231;-70
2021/11/04 10:01:50;;;;;;;0.10;0.10;;;;;;;7.93;73.48;96366.47;6270803;28;20599;-71
2021/11/04 10:05:03;;;;;;;0.60;0.10;;;;;;;8.10;73.51;96365.75;6271137;28;20694;-70
2021/11/04 10:08:05;;;;;;;0.00;0.00;;;;;;;8.14;74.28;96369.78;6271873;28;20196;-70
2021/11/04 10:11:12;;;;;;;0.83;0.10;;;;;;;8.03;73.89;96393.56;6271393;28;20238;-71
2021/11/04 10:14:18;;;;;;;0.10;0.10;;;;;;;7.98;73.74;96401.06;6271576;28;20298;-71
2021/11/04 10:17:47;;;;;;;0.10;0.10;;;;;;;7.84;74.08;96404.06;6271345;28;20194;-71
2021/11/04 10:21:02;;;;;;;0.10;0.00;;;;;;;7.75;73.95;96424.13;6301836;28;20209;-71
2021/11/04 10:24:09;;;;;;;0.10;0.10;;;;;;;7.68;73.95;96424.81;6271850;28;20201;-71
2021/11/04 10:27:32;;;;;;;0.10;0.10;;;;;;;7.61;73.14;96432.38;6270103;28;20632;-71
2021/11/04 10:30:40;;;;;;;0.00;0.00;;;;;;;7.91;73.40;96441.94;6271752;28;20192;-71
2021/11/04 10:33:48;;;;;;;0.10;0.10;;;;;;;8.45;72.58;96436.16;6246011;28;20212;-71
2021/11/04 10:36:50;;;;;;;0.10;0.10;;;;;;;8.63;68.37;96446.78;6260541;28;20350;-71
2021/11/04 10:40:06;;;;;;;0.30;0.27;;;;;;;8.51;69.86;96461.88;6271128;28;20290;-71
2021/11/04 10:43:08;;;;;;;0.00;0.00;;;;;;;8.40;72.25;96459.41;6270713;28;20201;-71
2021/11/04 10:46:13;;;;;;;0.10;0.10;;;;;;;8.55;70.03;96466.88;6270896;28;20183;-71
2021/11/04 10:49:21;;;;;;;0.10;0.10;;;;;;;8.47;71.26;96486.81;6269647;28;20179;-71
2021/11/04 10:52:28;;;;;;;0.10;0.10;;;;;;;8.63;70.24;96498.56;6271085;28;20211;-71
2021/11/04 10:55:30;;;;;;;1.07;0.10;;;;;;;8.88;68.32;96485.63;6269506;28;20192;-71
2021/11/04 10:58:34;;;;;;;0.20;0.10;;;;;;;9.24;66.76;96481.38;6260876;28;20274;-71
2021/11/04 11:01:44;;;;;;;0.10;0.10;;;;;;;9.42;65.79;96481.44;6269537;28;20663;-70
2021/11/04 11:04:47;;;;;;;0.27;0.10;;;;;;;9.73;66.08;96481.16;6252881;28;20203;-70
2021/11/04 11:07:49;;;;;;;0.10;0.10;;;;;;;10.07;65.68;96491.91;6269026;28;20212;-70
2021/11/04 11:10:52;;;;;;;0.10;0.10;;;;;;;10.24;64.86;96505.13;6268623;28;20707;-70
2021/11/04 11:13:58;;;;;;;1.37;0.13;;;;;;;10.35;64.19;96507.56;6269817;28;20191;-70
2021/11/04 11:17:02;;;;;;;0.10;0.10;;;;;;;10.62;64.18;96505.78;6268493;28;20239;-70
2021/11/04 11:20:05;;;;;;;0.10;0.10;;;;;;;10.77;62.08;96501.66;6269808;28;20241;-70
2021/11/04 11:23:11;;;;;;;0.10;0.10;;;;;;;10.97;62.53;96512.84;6269882;28;20200;-70
2021/11/04 11:26:15;;;;;;;0.23;0.20;;;;;;;11.14;60.40;96540.19;6269370;28;20905;-69
2021/11/04 11:29:18;;;;;;;0.20;0.20;;;;;;;11.02;60.63;96529.03;6269917;28;20191;-71
2021/11/04 11:32:28;;;;;;;0.30;0.10;;;;;;;11.16;60.34;96544.34;6270126;28;20211;-71
2021/11/04 11:35:30;;;;;;;0.10;0.10;;;;;;;11.13;58.35;96544.63;6269200;28;20707;-70
2021/11/04 11:39:14;;;;;;;0.63;0.10;;;;;;;11.50;59.62;96538.25;6269401;28;20294;-69
2021/11/04 11:42:24;;;;;;;0.20;0.20;;;;;;;11.73;54.10;96556.06;6301097;28;20714;-69
2021/11/04 11:45:34;;;;;;;0.20;0.20;;;;;;;11.66;55.58;96565.63;6269378;28;20193;-69
2021/11/04 11:48:36;;;;;;;0.10;0.10;;;;;;;11.91;57.02;96540.13;6267808;28;20292;-71
2021/11/04 11:51:45;;;;;;;0.10;0.10;;;;;;;11.62;54.61;96552.84;6269970;28;20194;-70
2021/11/04 11:54:58;;;;;;;0.40;0.10;;;;;;;11.67;55.76;96555.88;6268486;28;20181;-70
2021/11/04 11:58:36;;;;;;;0.10;0.10;;;;;;;11.91;55.44;96553.34;6269148;28;20190;-70
2021/11/04 12:01:49;;;;;;;1.20;0.30;;;;;;;12.29;55.09;96557.28;6243543;28;20293;-70
2021/11/04 12:05:21;;;;;;;0.10;0.10;;;;;;;12.40;53.22;96580.81;6268851;28;20186;-70
2021/11/04 12:08:26;;;;;;;0.20;0.20;;;;;;;12.31;50.81;96592.34;6269048;28;20270;-69
2021/11/04 12:11:37;;;;;;;0.60;0.20;;;;;;;12.02;49.64;96586.63;6268310;28;20238;-70
2021/11/04 12:14:39;;;;;;;1.40;0.20;;;;;;;12.10;51.89;96579.53;6268559;28;20205;-70
2021/11/04 12:18:07;;;;;;;0.20;0.10;;;;;;;12.44;50.81;96576.03;6268652;28;20206;-70
2021/11/04 12:21:09;;;;;;;0.30;0.20;;;;;;;12.71;50.94;96583.69;6268599;28;20197;-71
2021/11/04 12:24:19;;;;;;;0.27;0.27;;;;;;;12.91;49.96;96585.03;6267691;28;20197;-71
2021/11/04 12:27:22;;;;;;;0.10;0.10;;;;;;;12.91;49.46;96582.38;6266708;28;20352;-70
2021/11/04 12:30:28;;;;;;;0.10;0.10;;;;;;;13.01;49.87;96592.81;6267350;28;20570;-71
2021/11/04 12:33:33;;;;;;;0.10;0.10;;;;;;;13.36;49.31;96601.47;6268021;28;20206;-70
2021/11/04 12:36:39;;;;;;;0.10;0.10;;;;;;;13.84;47.89;96617.31;6266980;28;20212;-70
2021/11/04 12:39:46;;;;;;;0.10;0.10;;;;;;;13.86;46.86;96615.31;6268735;28;20321;-70
2021/11/04 12:42:48;;;;;;;0.10;0.10;;;;;;;13.93;47.32;96610.97;6266943;28;20199;-70
2021/11/04 12:45:50;;;;;;;0.20;0.20;;;;;;;14.25;45.97;96619.81;6268140;28;20199;-70
2021/11/04 12:48:55;;;;;;;0.27;0.20;;;;;;;14.94;42.44;96626.13;6241978;28;20567;-71
2021/11/04 12:52:00;;;;;;;0.20;0.20;;;;;;;15.94;41.91;96619.66;6260304;28;20712;-70
2021/11/04 12:55:02;;;;;;;0.20;0.20;;;;;;;17.50;37.47;96620.88;6267302;28;20254;-72
2021/11/04 12:58:07;;;;;;;0.10;0.10;;;;;;;18.64;37.45;96616.97;6266900;28;20204;-70
2021/11/04 13:01:09;;;;;;;1.17;0.17;;;;;;;19.07;34.18;96620.16;6268217;28;20280;-71
2021/11/04 13:04:23;;;;;;;0.20;0.20;;;;;;;20.08;32.80;96625.38;6266677;28;20534;-70
2021/11/04 13:07:33;;;;;;;0.10;0.10;;;;;;;20.99;31.60;96626.16;6272280;28;20172;-70
2021/11/04 13:10:39;;;;;;;0.20;0.20;;;;;;;20.35;31.27;96634.25;6273183;28;20239;-71
2021/11/04 13:13:50;;;;;;;0.20;0.20;;;;;;;18.85;33.98;96649.94;6273768;28;20544;-70
2021/11/04 13:16:52;;;;;;;0.57;0.20;;;;;;;17.90;36.57;96646.09;6273663;28;20211;-70
2021/11/04 13:20:02;;;;;;;0.20;0.20;;;;;;;16.94;38.03;96652.75;6264190;28;20202;-71
2021/11/04 13:23:28;;;;;;;1.40;0.20;;;;;;;15.08;41.38;96668.72;6266941;28;20209;-71
2021/11/04 13:26:30;;;;;;;0.20;0.20;;;;;;;13.39;45.07;96664.72;6270362;28;20219;-71
2021/11/04 13:29:51;;;;;;;0.10;0.10;;;;;;;12.15;49.59;96661.06;6273138;28;20561;-72
2021/11/04 13:32:54;;;;;;;0.20;0.20;;;;;;;11.10;49.59;96677.78;6272950;28;20197;-70
2021/11/04 13:36:07;;;;;;;0.40;0.27;;;;;;;10.79;50.72;96681.75;6272756;28;20961;-71
2021/11/04 13:39:13;;;;;;;0.20;0.20;;;;;;;10.73;52.94;96679.72;6272281;28;20788;-71
2021/11/04 13:42:48;;;;;;;0.77;0.20;;;;;;;10.83;52.56;96683.13;6272851;28;20220;-71
2021/11/04 13:46:07;;;;;;;0.20;0.20;;;;;;;10.73;52.72;96682.38;6244657;28;20218;-71
2021/11/04 13:49:09;;;;;;;0.33;0.20;;;;;;;10.65;53.19;96688.41;6245062;28;20204;-72
2021/11/04 13:52:12;;;;;;;0.20;0.20;;;;;;;10.36;52.13;96693.00;6245026;28;20794;-71
2021/11/04 13:55:29;;;;;;;0.37;0.30;;;;;;;10.06;54.96;96694.06;6244594;28;20267;-71
2021/11/04 13:58:43;;;;;;;0.20;0.20;;;;;;;9.90;55.80;96704.34;6261701;28;20629;-71
2021/11/04 14:01:50;;;;;;;0.23;0.23;;;;;;;9.73;56.60;96718.25;6244690;28;20571;-71
2021/11/04 14:04:59;;;;;;;1.40;0.30;;;;;;;9.53;56.44;96726.19;6244530;28;20197;-71
2021/11/04 14:08:01;;;;;;;0.33;0.30;;;;;;;9.41;56.89;96727.31;6261673;28;20192;-71
2021/11/04 14:11:17;;;;;;;0.20;0.20;;;;;;;9.37;58.22;96741.75;6244904;28;20246;-72
2021/11/04 14:14:20;;;;;;;0.20;0.20;;;;;;;9.29;58.04;96746.00;6245404;28;20565;-71
2021/11/04 14:17:24;;;;;;;0.37;0.20;;;;;;;9.23;58.02;96755.31;6243309;28;20293;-71
2021/11/04 14:20:30;;;;;;;0.20;0.20;;;;;;;9.12;58.40;96761.53;6244549;28;20200;-70
2021/11/04 14:23:32;;;;;;;0.47;0.20;;;;;;;9.03;58.67;96761.50;6269835;28;20203;-71
2021/11/04 14:26:36;;;;;;;0.27;0.27;;;;;;;8.97;59.14;96780.47;6271810;28;20180;-71
2021/11/04 14:29:42;;;;;;;10.87;0.50;;;;;;;8.92;59.09;96785.31;6272651;28;20185;-71